Pamelia, New York
Current Conditions -  °F | °C
As of 2:15 PM on Friday 28 Nov 2014 (Local Time) from KGTB Reporting Station
Unknown Precip Unknown Precip  
Wind Chill: -11°   Ceiling: 2900
Heat Index: -5°   Visibility: 9mi
Dew Point: -11°   Wind: 10mph
Humidity: 63%   Direction: 290°WNW
Pressure: 30.13"   Gusts: NA
Location:  44.0981°N, 75.8331°W
Report Text: KGTB 281915Z AUTO 29009KT 9SM UP BKN029 OVC036 M05/M11 A3013 RMK AO2 UPB1915
Loading
Personal Weather Stations






























Interactive Weather Map New forecast layout! Learn more

10-Day Weather Forecast

Advertisements
Track Severe Weather on mobile